sensor_id;sensor_type;location;lat;lon;timestamp;temperature;humidity
75500;DHT22;64076;51.466;7.260;2023-08-31T00:00:10;26.10;44.00
75500;DHT22;64076;51.466;7.260;2023-08-31T00:02:38;26.10;44.00
75500;DHT22;64076;51.466;7.260;2023-08-31T00:05:04;26.00;44.00
75500;DHT22;64076;51.466;7.260;2023-08-31T00:07:30;26.00;44.00
75500;DHT22;64076;51.466;7.260;2023-08-31T00:09:56;26.00;43.90
75500;DHT22;64076;51.466;7.260;2023-08-31T00:12:21;26.00;44.00
75500;DHT22;64076;51.466;7.260;2023-08-31T00:14:49;26.00;43.90
75500;DHT22;64076;51.466;7.260;2023-08-31T00:17:15;26.00;43.90
75500;DHT22;64076;51.466;7.260;2023-08-31T00:19:40;26.00;43.90
75500;DHT22;64076;51.466;7.260;2023-08-31T00:22:06;26.00;43.90
75500;DHT22;64076;51.466;7.260;2023-08-31T00:24:31;26.00;43.90
75500;DHT22;64076;51.466;7.260;2023-08-31T00:26:57;26.00;43.90
75500;DHT22;64076;51.466;7.260;2023-08-31T00:29:23;26.00;43.80
75500;DHT22;64076;51.466;7.260;2023-08-31T00:31:50;26.00;43.80
75500;DHT22;64076;51.466;7.260;2023-08-31T00:34:16;26.00;43.80
75500;DHT22;64076;51.466;7.260;2023-08-31T00:36:43;26.00;43.80
75500;DHT22;64076;51.466;7.260;2023-08-31T00:39:08;26.00;43.80
75500;DHT22;64076;51.466;7.260;2023-08-31T00:41:36;26.00;43.70
75500;DHT22;64076;51.466;7.260;2023-08-31T00:44:02;26.00;43.80
75500;DHT22;64076;51.466;7.260;2023-08-31T00:46:30;26.00;43.70
75500;DHT22;64076;51.466;7.260;2023-08-31T00:48:56;26.00;43.70
75500;DHT22;64076;51.466;7.260;2023-08-31T00:51:23;26.00;43.70
75500;DHT22;64076;51.466;7.260;2023-08-31T00:53:49;26.00;43.70
75500;DHT22;64076;51.466;7.260;2023-08-31T00:56:18;26.00;43.70
75500;DHT22;64076;51.466;7.260;2023-08-31T00:58:44;26.00;43.60
75500;DHT22;64076;51.466;7.260;2023-08-31T01:09:57;26.00;43.60
75500;DHT22;64076;51.466;7.260;2023-08-31T01:12:36;25.90;43.60
75500;DHT22;64076;51.466;7.260;2023-08-31T01:15:09;25.90;43.60
75500;DHT22;64076;51.466;7.260;2023-08-31T01:17:48;25.90;43.60
75500;DHT22;64076;51.466;7.260;2023-08-31T01:20:22;25.90;43.60
75500;DHT22;64076;51.466;7.260;2023-08-31T01:22:57;25.90;43.60
75500;DHT22;64076;51.466;7.260;2023-08-31T01:25:24;25.90;43.60
75500;DHT22;64076;51.466;7.260;2023-08-31T01:27:50;25.90;43.50
75500;DHT22;64076;51.466;7.260;2023-08-31T01:30:16;25.90;43.60
75500;DHT22;64076;51.466;7.260;2023-08-31T01:32:47;25.90;43.50
75500;DHT22;64076;51.466;7.260;2023-08-31T01:35:16;25.90;43.50
75500;DHT22;64076;51.466;7.260;2023-08-31T01:37:54;25.90;43.50
75500;DHT22;64076;51.466;7.260;2023-08-31T01:40:47;25.90;43.50
75500;DHT22;64076;51.466;7.260;2023-08-31T01:43:17;25.90;43.50
75500;DHT22;64076;51.466;7.260;2023-08-31T01:45:45;25.90;43.50
75500;DHT22;64076;51.466;7.260;2023-08-31T01:48:13;25.90;43.40
75500;DHT22;64076;51.466;7.260;2023-08-31T01:50:39;25.90;43.40
75500;DHT22;64076;51.466;7.260;2023-08-31T01:53:05;25.90;43.40
75500;DHT22;64076;51.466;7.260;2023-08-31T01:55:32;25.90;43.40
75500;DHT22;64076;51.466;7.260;2023-08-31T01:57:58;25.90;43.40
75500;DHT22;64076;51.466;7.260;2023-08-31T02:00:24;25.90;43.40
75500;DHT22;64076;51.466;7.260;2023-08-31T02:02:50;25.90;43.30
75500;DHT22;64076;51.466;7.260;2023-08-31T02:05:15;25.90;43.30
75500;DHT22;64076;51.466;7.260;2023-08-31T02:07:41;25.80;43.30
75500;DHT22;64076;51.466;7.260;2023-08-31T02:10:07;25.90;43.30
75500;DHT22;64076;51.466;7.260;2023-08-31T02:12:33;25.90;43.20
75500;DHT22;64076;51.466;7.260;2023-08-31T02:14:59;25.80;43.20
75500;DHT22;64076;51.466;7.260;2023-08-31T02:17:25;25.90;43.20
75500;DHT22;64076;51.466;7.260;2023-08-31T02:19:51;25.80;43.20
75500;DHT22;64076;51.466;7.260;2023-08-31T02:22:16;25.80;43.20
75500;DHT22;64076;51.466;7.260;2023-08-31T02:24:42;25.80;43.20
75500;DHT22;64076;51.466;7.260;2023-08-31T02:27:07;25.80;43.20
75500;DHT22;64076;51.466;7.260;2023-08-31T02:29:33;25.80;43.20
75500;DHT22;64076;51.466;7.260;2023-08-31T02:31:58;25.80;43.20
75500;DHT22;64076;51.466;7.260;2023-08-31T02:34:24;25.80;43.20
75500;DHT22;64076;51.466;7.260;2023-08-31T02:36:49;25.80;43.10
75500;DHT22;64076;51.466;7.260;2023-08-31T02:39:15;25.80;43.10
75500;DHT22;64076;51.466;7.260;2023-08-31T02:41:41;25.80;43.10
75500;DHT22;64076;51.466;7.260;2023-08-31T02:44:07;25.80;43.20
75500;DHT22;64076;51.466;7.260;2023-08-31T02:46:32;25.80;43.10
75500;DHT22;64076;51.466;7.260;2023-08-31T02:48:58;25.80;43.10
75500;DHT22;64076;51.466;7.260;2023-08-31T02:51:23;25.80;43.10
75500;DHT22;64076;51.466;7.260;2023-08-31T02:53:49;25.80;43.10
75500;DHT22;64076;51.466;7.260;2023-08-31T02:56:14;25.80;43.10
75500;DHT22;64076;51.466;7.260;2023-08-31T02:58:40;25.80;43.00
75500;DHT22;64076;51.466;7.260;2023-08-31T03:01:09;25.80;43.00
75500;DHT22;64076;51.466;7.260;2023-08-31T03:03:38;25.80;43.00
75500;DHT22;64076;51.466;7.260;2023-08-31T03:06:09;25.80;43.00
75500;DHT22;64076;51.466;7.260;2023-08-31T03:08:38;25.80;43.00
75500;DHT22;64076;51.466;7.260;2023-08-31T03:11:04;25.80;43.00
75500;DHT22;64076;51.466;7.260;2023-08-31T03:13:31;25.80;42.90
75500;DHT22;64076;51.466;7.260;2023-08-31T03:15:57;25.80;43.00
75500;DHT22;64076;51.466;7.260;2023-08-31T03:18:23;25.80;42.90
75500;DHT22;64076;51.466;7.260;2023-08-31T03:20:48;25.80;42.90
75500;DHT22;64076;51.466;7.260;2023-08-31T03:23:14;25.80;42.90
75500;DHT22;64076;51.466;7.260;2023-08-31T03:25:40;25.70;42.90
75500;DHT22;64076;51.466;7.260;2023-08-31T03:28:06;25.80;43.00
75500;DHT22;64076;51.466;7.260;2023-08-31T03:30:32;25.70;42.90
75500;DHT22;64076;51.466;7.260;2023-08-31T03:32:57;25.70;42.90
75500;DHT22;64076;51.466;7.260;2023-08-31T03:35:23;25.70;42.90
75500;DHT22;64076;51.466;7.260;2023-08-31T03:37:53;25.70;42.90
75500;DHT22;64076;51.466;7.260;2023-08-31T03:40:18;25.70;42.90
75500;DHT22;64076;51.466;7.260;2023-08-31T03:42:44;25.70;42.90
75500;DHT22;64076;51.466;7.260;2023-08-31T03:45:10;25.70;42.90
75500;DHT22;64076;51.466;7.260;2023-08-31T03:47:36;25.70;42.90
75500;DHT22;64076;51.466;7.260;2023-08-31T03:50:01;25.70;42.80
75500;DHT22;64076;51.466;7.260;2023-08-31T03:52:27;25.70;42.80
75500;DHT22;64076;51.466;7.260;2023-08-31T03:54:52;25.70;42.80
75500;DHT22;64076;51.466;7.260;2023-08-31T03:57:18;25.70;42.80
75500;DHT22;64076;51.466;7.260;2023-08-31T03:59:43;25.70;42.80
75500;DHT22;64076;51.466;7.260;2023-08-31T04:02:09;25.70;42.80
75500;DHT22;64076;51.466;7.260;2023-08-31T04:04:34;25.70;42.80
75500;DHT22;64076;51.466;7.260;2023-08-31T04:07:00;25.70;42.80
75500;DHT22;64076;51.466;7.260;2023-08-31T04:09:25;25.70;42.80
75500;DHT22;64076;51.466;7.260;2023-08-31T04:11:51;25.70;42.80
75500;DHT22;64076;51.466;7.260;2023-08-31T04:14:17;25.70;42.80
75500;DHT22;64076;51.466;7.260;2023-08-31T04:16:44;25.70;42.80
75500;DHT22;64076;51.466;7.260;2023-08-31T04:19:09;25.70;42.80
75500;DHT22;64076;51.466;7.260;2023-08-31T04:21:35;25.70;42.80
75500;DHT22;64076;51.466;7.260;2023-08-31T04:24:01;25.70;42.80
75500;DHT22;64076;51.466;7.260;2023-08-31T04:26:27;25.70;42.70
75500;DHT22;64076;51.466;7.260;2023-08-31T04:28:53;25.70;42.70
75500;DHT22;64076;51.466;7.260;2023-08-31T04:31:19;25.70;42.80
75500;DHT22;64076;51.466;7.260;2023-08-31T04:33:45;25.70;42.80
75500;DHT22;64076;51.466;7.260;2023-08-31T04:36:10;25.60;42.80
75500;DHT22;64076;51.466;7.260;2023-08-31T04:38:37;25.70;42.80
75500;DHT22;64076;51.466;7.260;2023-08-31T04:41:03;25.70;42.70
75500;DHT22;64076;51.466;7.260;2023-08-31T04:43:29;25.70;42.70
75500;DHT22;64076;51.466;7.260;2023-08-31T04:45:55;25.70;42.70
75500;DHT22;64076;51.466;7.260;2023-08-31T04:48:20;25.60;42.70
75500;DHT22;64076;51.466;7.260;2023-08-31T04:50:46;25.70;42.70
75500;DHT22;64076;51.466;7.260;2023-08-31T04:53:12;25.60;42.70
75500;DHT22;64076;51.466;7.260;2023-08-31T04:55:37;25.60;42.70
75500;DHT22;64076;51.466;7.260;2023-08-31T04:58:03;25.60;42.70
75500;DHT22;64076;51.466;7.260;2023-08-31T05:00:29;25.60;42.70
75500;DHT22;64076;51.466;7.260;2023-08-31T05:02:55;25.60;42.70
75500;DHT22;64076;51.466;7.260;2023-08-31T05:05:21;25.60;42.70
75500;DHT22;64076;51.466;7.260;2023-08-31T05:07:47;25.60;42.70
75500;DHT22;64076;51.466;7.260;2023-08-31T05:10:12;25.60;42.70
75500;DHT22;64076;51.466;7.260;2023-08-31T05:12:38;25.60;42.70
75500;DHT22;64076;51.466;7.260;2023-08-31T05:15:04;25.60;42.60
75500;DHT22;64076;51.466;7.260;2023-08-31T05:17:29;25.70;42.70
75500;DHT22;64076;51.466;7.260;2023-08-31T05:19:56;25.70;42.40
75500;DHT22;64076;51.466;7.260;2023-08-31T05:22:21;25.80;42.20
75500;DHT22;64076;51.466;7.260;2023-08-31T05:24:47;25.80;42.00
75500;DHT22;64076;51.466;7.260;2023-08-31T05:27:13;25.90;41.90
75500;DHT22;64076;51.466;7.260;2023-08-31T05:29:38;25.90;41.80
75500;DHT22;64076;51.466;7.260;2023-08-31T05:32:04;25.90;41.70
75500;DHT22;64076;51.466;7.260;2023-08-31T05:34:30;25.90;41.60
75500;DHT22;64076;51.466;7.260;2023-08-31T05:36:57;26.00;41.50
75500;DHT22;64076;51.466;7.260;2023-08-31T05:39:23;26.00;41.50
75500;DHT22;64076;51.466;7.260;2023-08-31T05:41:49;26.00;41.50
75500;DHT22;64076;51.466;7.260;2023-08-31T05:44:14;26.00;41.50
75500;DHT22;64076;51.466;7.260;2023-08-31T05:46:40;26.00;41.40
75500;DHT22;64076;51.466;7.260;2023-08-31T05:49:06;26.10;41.40
75500;DHT22;64076;51.466;7.260;2023-08-31T05:51:32;26.10;41.40
75500;DHT22;64076;51.466;7.260;2023-08-31T05:53:58;26.10;41.40
75500;DHT22;64076;51.466;7.260;2023-08-31T05:56:23;26.10;41.30
75500;DHT22;64076;51.466;7.260;2023-08-31T05:58:49;26.20;41.30
75500;DHT22;64076;51.466;7.260;2023-08-31T06:01:15;26.20;41.20
75500;DHT22;64076;51.466;7.260;2023-08-31T06:03:41;26.20;41.20
75500;DHT22;64076;51.466;7.260;2023-08-31T06:06:07;26.30;41.20
75500;DHT22;64076;51.466;7.260;2023-08-31T06:08:32;26.30;41.20
75500;DHT22;64076;51.466;7.260;2023-08-31T06:10:58;26.30;41.10
75500;DHT22;64076;51.466;7.260;2023-08-31T06:13:24;26.30;41.10
75500;DHT22;64076;51.466;7.260;2023-08-31T06:15:49;26.40;41.10
75500;DHT22;64076;51.466;7.260;2023-08-31T06:18:15;26.40;41.00
75500;DHT22;64076;51.466;7.260;2023-08-31T06:20:41;26.50;41.10
75500;DHT22;64076;51.466;7.260;2023-08-31T06:23:06;26.50;41.00
75500;DHT22;64076;51.466;7.260;2023-08-31T06:25:32;26.50;41.00
75500;DHT22;64076;51.466;7.260;2023-08-31T06:27:57;26.50;41.10
75500;DHT22;64076;51.466;7.260;2023-08-31T06:30:23;26.50;41.10
75500;DHT22;64076;51.466;7.260;2023-08-31T06:32:50;26.50;41.10
75500;DHT22;64076;51.466;7.260;2023-08-31T06:35:16;26.50;41.10
75500;DHT22;64076;51.466;7.260;2023-08-31T06:37:42;26.50;41.10
75500;DHT22;64076;51.466;7.260;2023-08-31T06:40:08;26.50;41.00
75500;DHT22;64076;51.466;7.260;2023-08-31T06:42:38;26.50;41.10
75500;DHT22;64076;51.466;7.260;2023-08-31T06:45:04;26.60;41.10
75500;DHT22;64076;51.466;7.260;2023-08-31T06:47:30;26.60;41.10
75500;DHT22;64076;51.466;7.260;2023-08-31T06:49:56;26.60;41.00
75500;DHT22;64076;51.466;7.260;2023-08-31T06:52:23;26.70;40.90
75500;DHT22;64076;51.466;7.260;2023-08-31T06:54:49;26.70;40.90
75500;DHT22;64076;51.466;7.260;2023-08-31T06:57:14;26.70;40.80
75500;DHT22;64076;51.466;7.260;2023-08-31T06:59:40;26.80;40.80
75500;DHT22;64076;51.466;7.260;2023-08-31T07:02:05;26.80;40.80
75500;DHT22;64076;51.466;7.260;2023-08-31T07:04:31;26.80;40.80
75500;DHT22;64076;51.466;7.260;2023-08-31T07:06:57;26.80;40.80
75500;DHT22;64076;51.466;7.260;2023-08-31T07:09:23;26.80;40.80
75500;DHT22;64076;51.466;7.260;2023-08-31T07:11:49;26.80;40.80
75500;DHT22;64076;51.466;7.260;2023-08-31T07:14:14;26.80;40.80
75500;DHT22;64076;51.466;7.260;2023-08-31T07:16:40;26.80;40.70
75500;DHT22;64076;51.466;7.260;2023-08-31T07:19:05;26.80;40.80
75500;DHT22;64076;51.466;7.260;2023-08-31T07:21:31;26.80;40.70
75500;DHT22;64076;51.466;7.260;2023-08-31T07:23:57;26.80;40.80
75500;DHT22;64076;51.466;7.260;2023-08-31T07:26:22;26.80;40.80
75500;DHT22;64076;51.466;7.260;2023-08-31T07:28:48;26.80;40.70
75500;DHT22;64076;51.466;7.260;2023-08-31T07:31:13;26.70;40.90
75500;DHT22;64076;51.466;7.260;2023-08-31T07:33:39;26.70;40.90
75500;DHT22;64076;51.466;7.260;2023-08-31T07:36:05;26.60;41.00
75500;DHT22;64076;51.466;7.260;2023-08-31T07:38:31;26.50;41.20
75500;DHT22;64076;51.466;7.260;2023-08-31T07:40:57;26.40;41.20
75500;DHT22;64076;51.466;7.260;2023-08-31T07:43:24;26.30;41.40
75500;DHT22;64076;51.466;7.260;2023-08-31T07:45:50;26.30;41.50
75500;DHT22;64076;51.466;7.260;2023-08-31T07:48:15;26.20;41.50
75500;DHT22;64076;51.466;7.260;2023-08-31T07:50:41;26.20;41.50
75500;DHT22;64076;51.466;7.260;2023-08-31T07:53:08;26.10;41.60
75500;DHT22;64076;51.466;7.260;2023-08-31T07:55:33;26.10;41.60
75500;DHT22;64076;51.466;7.260;2023-08-31T07:58:01;26.00;41.70
75500;DHT22;64076;51.466;7.260;2023-08-31T08:00:27;26.10;41.60
75500;DHT22;64076;51.466;7.260;2023-08-31T08:02:52;26.10;41.50
75500;DHT22;64076;51.466;7.260;2023-08-31T08:05:18;26.20;41.40
75500;DHT22;64076;51.466;7.260;2023-08-31T08:07:43;26.20;41.20
75500;DHT22;64076;51.466;7.260;2023-08-31T08:10:09;26.30;41.10
75500;DHT22;64076;51.466;7.260;2023-08-31T08:12:39;26.30;41.00
75500;DHT22;64076;51.466;7.260;2023-08-31T08:15:05;26.30;40.80
75500;DHT22;64076;51.466;7.260;2023-08-31T08:17:33;26.40;40.70
75500;DHT22;64076;51.466;7.260;2023-08-31T08:19:58;26.40;40.70
75500;DHT22;64076;51.466;7.260;2023-08-31T08:22:24;26.40;40.70
75500;DHT22;64076;51.466;7.260;2023-08-31T08:24:50;26.40;40.60
75500;DHT22;64076;51.466;7.260;2023-08-31T08:27:16;26.40;40.70
75500;DHT22;64076;51.466;7.260;2023-08-31T08:29:43;26.40;40.60
75500;DHT22;64076;51.466;7.260;2023-08-31T08:32:08;26.50;40.60
75500;DHT22;64076;51.466;7.260;2023-08-31T08:34:34;26.50;40.60
75500;DHT22;64076;51.466;7.260;2023-08-31T08:37:00;26.50;40.60
75500;DHT22;64076;51.466;7.260;2023-08-31T08:39:25;26.50;40.60
75500;DHT22;64076;51.466;7.260;2023-08-31T08:41:54;26.50;40.60
75500;DHT22;64076;51.466;7.260;2023-08-31T08:44:22;26.50;40.50
75500;DHT22;64076;51.466;7.260;2023-08-31T08:46:51;26.50;40.50
75500;DHT22;64076;51.466;7.260;2023-08-31T08:49:18;26.50;40.60
75500;DHT22;64076;51.466;7.260;2023-08-31T08:51:45;26.50;40.60
75500;DHT22;64076;51.466;7.260;2023-08-31T08:54:12;26.50;40.70
75500;DHT22;64076;51.466;7.260;2023-08-31T08:56:38;26.60;40.80
75500;DHT22;64076;51.466;7.260;2023-08-31T08:59:05;26.60;40.80
75500;DHT22;64076;51.466;7.260;2023-08-31T09:01:32;26.70;40.80
75500;DHT22;64076;51.466;7.260;2023-08-31T09:03:58;26.70;40.90
75500;DHT22;64076;51.466;7.260;2023-08-31T09:06:24;26.70;40.80
75500;DHT22;64076;51.466;7.260;2023-08-31T09:08:54;26.80;40.80
75500;DHT22;64076;51.466;7.260;2023-08-31T09:11:24;26.80;40.80
75500;DHT22;64076;51.466;7.260;2023-08-31T09:13:51;26.80;40.90
75500;DHT22;64076;51.466;7.260;2023-08-31T09:16:30;26.80;40.90
75500;DHT22;64076;51.466;7.260;2023-08-31T09:18:58;26.80;40.90
75500;DHT22;64076;51.466;7.260;2023-08-31T09:21:37;26.80;40.90
75500;DHT22;64076;51.466;7.260;2023-08-31T09:24:05;26.80;40.90
75500;DHT22;64076;51.466;7.260;2023-08-31T09:26:40;26.80;40.90
75500;DHT22;64076;51.466;7.260;2023-08-31T09:29:06;26.80;41.00
75500;DHT22;64076;51.466;7.260;2023-08-31T09:31:32;26.80;40.90
75500;DHT22;64076;51.466;7.260;2023-08-31T09:33:57;26.80;40.90
75500;DHT22;64076;51.466;7.260;2023-08-31T09:36:23;26.80;40.90
75500;DHT22;64076;51.466;7.260;2023-08-31T09:38:49;26.80;40.90
75500;DHT22;64076;51.466;7.260;2023-08-31T09:41:14;26.80;40.90
75500;DHT22;64076;51.466;7.260;2023-08-31T09:43:41;26.80;40.90
75500;DHT22;64076;51.466;7.260;2023-08-31T09:46:07;26.80;40.90
75500;DHT22;64076;51.466;7.260;2023-08-31T09:48:34;26.80;40.90
75500;DHT22;64076;51.466;7.260;2023-08-31T09:51:04;26.90;40.80
75500;DHT22;64076;51.466;7.260;2023-08-31T09:53:31;26.80;40.70
75500;DHT22;64076;51.466;7.260;2023-08-31T09:55:57;26.80;40.70
75500;DHT22;64076;51.466;7.260;2023-08-31T09:58:23;26.80;40.60
75500;DHT22;64076;51.466;7.260;2023-08-31T10:00:53;26.90;40.60
75500;DHT22;64076;51.466;7.260;2023-08-31T10:03:20;26.80;40.70
75500;DHT22;64076;51.466;7.260;2023-08-31T10:05:47;26.90;40.60
75500;DHT22;64076;51.466;7.260;2023-08-31T10:08:14;26.90;40.60
75500;DHT22;64076;51.466;7.260;2023-08-31T10:10:40;26.90;40.50
75500;DHT22;64076;51.466;7.260;2023-08-31T10:13:06;26.90;40.50
75500;DHT22;64076;51.466;7.260;2023-08-31T10:15:33;26.90;40.50
75500;DHT22;64076;51.466;7.260;2023-08-31T10:18:03;26.90;40.30
75500;DHT22;64076;51.466;7.260;2023-08-31T10:20:29;26.90;40.20
75500;DHT22;64076;51.466;7.260;2023-08-31T10:23:01;26.90;40.10
75500;DHT22;64076;51.466;7.260;2023-08-31T10:28:20;26.90;39.80
75500;DHT22;64076;51.466;7.260;2023-08-31T10:31:18;26.90;39.80
75500;DHT22;64076;51.466;7.260;2023-08-31T10:36:46;26.80;39.70
75500;DHT22;64076;51.466;7.260;2023-08-31T10:39:19;26.80;39.60
75500;DHT22;64076;51.466;7.260;2023-08-31T10:42:02;26.80;39.60
75500;DHT22;64076;51.466;7.260;2023-08-31T10:44:31;26.80;39.50
75500;DHT22;64076;51.466;7.260;2023-08-31T10:47:00;26.80;39.60
75500;DHT22;64076;51.466;7.260;2023-08-31T10:49:28;26.80;39.60
75500;DHT22;64076;51.466;7.260;2023-08-31T10:51:55;26.90;39.50
75500;DHT22;64076;51.466;7.260;2023-08-31T10:54:23;26.90;39.30
75500;DHT22;64076;51.466;7.260;2023-08-31T10:59:26;26.90;39.20
75500;DHT22;64076;51.466;7.260;2023-08-31T11:01:57;26.90;39.10
75500;DHT22;64076;51.466;7.260;2023-08-31T11:04:24;26.90;39.10
75500;DHT22;64076;51.466;7.260;2023-08-31T11:09:39;26.90;39.10
75500;DHT22;64076;51.466;7.260;2023-08-31T11:12:05;26.90;39.30
75500;DHT22;64076;51.466;7.260;2023-08-31T11:14:31;26.90;39.30
75500;DHT22;64076;51.466;7.260;2023-08-31T11:16:57;26.90;39.30
75500;DHT22;64076;51.466;7.260;2023-08-31T11:19:22;26.90;39.30
75500;DHT22;64076;51.466;7.260;2023-08-31T11:21:48;26.90;39.20
75500;DHT22;64076;51.466;7.260;2023-08-31T11:24:16;26.90;39.20
75500;DHT22;64076;51.466;7.260;2023-08-31T11:26:41;26.90;39.20
75500;DHT22;64076;51.466;7.260;2023-08-31T11:29:07;26.90;39.20
75500;DHT22;64076;51.466;7.260;2023-08-31T11:31:37;26.90;39.20
75500;DHT22;64076;51.466;7.260;2023-08-31T11:34:05;27.00;39.10
75500;DHT22;64076;51.466;7.260;2023-08-31T11:36:31;27.00;39.00
75500;DHT22;64076;51.466;7.260;2023-08-31T11:38:57;27.00;39.00
75500;DHT22;64076;51.466;7.260;2023-08-31T11:41:23;27.00;39.00
75500;DHT22;64076;51.466;7.260;2023-08-31T11:43:49;27.00;39.00
75500;DHT22;64076;51.466;7.260;2023-08-31T11:46:16;27.00;39.00
75500;DHT22;64076;51.466;7.260;2023-08-31T11:48:43;27.00;39.00
75500;DHT22;64076;51.466;7.260;2023-08-31T11:51:10;27.00;38.90
75500;DHT22;64076;51.466;7.260;2023-08-31T11:53:37;27.00;38.80
75500;DHT22;64076;51.466;7.260;2023-08-31T11:56:03;26.90;38.80
75500;DHT22;64076;51.466;7.260;2023-08-31T11:58:29;26.90;38.80
75500;DHT22;64076;51.466;7.260;2023-08-31T12:00:58;26.90;38.70
75500;DHT22;64076;51.466;7.260;2023-08-31T12:03:25;26.90;38.50
75500;DHT22;64076;51.466;7.260;2023-08-31T12:05:52;26.90;38.50
75500;DHT22;64076;51.466;7.260;2023-08-31T12:08:27;26.90;38.60
75500;DHT22;64076;51.466;7.260;2023-08-31T12:10:53;26.90;38.20
75500;DHT22;64076;51.466;7.260;2023-08-31T12:13:18;26.90;38.20
75500;DHT22;64076;51.466;7.260;2023-08-31T12:15:44;26.90;38.20
75500;DHT22;64076;51.466;7.260;2023-08-31T12:18:11;26.80;38.20
75500;DHT22;64076;51.466;7.260;2023-08-31T12:20:48;26.80;38.20
75500;DHT22;64076;51.466;7.260;2023-08-31T12:23:16;26.80;38.30
75500;DHT22;64076;51.466;7.260;2023-08-31T12:26:00;26.90;38.40
75500;DHT22;64076;51.466;7.260;2023-08-31T12:28:26;26.90;38.40
75500;DHT22;64076;51.466;7.260;2023-08-31T12:30:53;26.90;38.40
75500;DHT22;64076;51.466;7.260;2023-08-31T12:33:20;26.90;38.40
75500;DHT22;64076;51.466;7.260;2023-08-31T12:35:46;26.90;38.40
75500;DHT22;64076;51.466;7.260;2023-08-31T12:38:12;26.90;38.40
75500;DHT22;64076;51.466;7.260;2023-08-31T12:40:38;27.00;38.50
75500;DHT22;64076;51.466;7.260;2023-08-31T12:43:04;27.00;38.60
75500;DHT22;64076;51.466;7.260;2023-08-31T12:45:30;27.00;38.60
75500;DHT22;64076;51.466;7.260;2023-08-31T12:47:56;27.00;38.60
75500;DHT22;64076;51.466;7.260;2023-08-31T12:50:21;27.10;38.60
75500;DHT22;64076;51.466;7.260;2023-08-31T12:52:47;27.10;38.60
75500;DHT22;64076;51.466;7.260;2023-08-31T12:55:13;27.10;38.50
75500;DHT22;64076;51.466;7.260;2023-08-31T12:57:40;27.10;38.60
75500;DHT22;64076;51.466;7.260;2023-08-31T13:00:07;27.10;38.60
75500;DHT22;64076;51.466;7.260;2023-08-31T13:02:40;27.00;38.90
75500;DHT22;64076;51.466;7.260;2023-08-31T13:05:06;27.00;38.80
75500;DHT22;64076;51.466;7.260;2023-08-31T13:07:36;27.00;38.90
75500;DHT22;64076;51.466;7.260;2023-08-31T13:10:04;27.00;38.90
75500;DHT22;64076;51.466;7.260;2023-08-31T13:12:30;27.00;38.90
75500;DHT22;64076;51.466;7.260;2023-08-31T13:14:56;27.00;39.00
75500;DHT22;64076;51.466;7.260;2023-08-31T13:17:22;26.90;39.10
75500;DHT22;64076;51.466;7.260;2023-08-31T13:19:52;26.90;39.10
75500;DHT22;64076;51.466;7.260;2023-08-31T13:22:18;27.00;39.10
75500;DHT22;64076;51.466;7.260;2023-08-31T13:24:43;27.00;39.10
75500;DHT22;64076;51.466;7.260;2023-08-31T13:27:09;27.00;39.10
75500;DHT22;64076;51.466;7.260;2023-08-31T13:29:34;27.00;39.10
75500;DHT22;64076;51.466;7.260;2023-08-31T13:32:00;27.00;39.10
75500;DHT22;64076;51.466;7.260;2023-08-31T13:34:25;27.00;39.00
75500;DHT22;64076;51.466;7.260;2023-08-31T13:36:51;27.00;39.00
75500;DHT22;64076;51.466;7.260;2023-08-31T13:39:16;27.00;39.10
75500;DHT22;64076;51.466;7.260;2023-08-31T13:41:42;26.90;39.10
75500;DHT22;64076;51.466;7.260;2023-08-31T13:44:07;26.90;39.10
75500;DHT22;64076;51.466;7.260;2023-08-31T13:46:33;26.90;39.20
75500;DHT22;64076;51.466;7.260;2023-08-31T13:48:58;26.90;39.30
75500;DHT22;64076;51.466;7.260;2023-08-31T13:51:24;26.90;39.30
75500;DHT22;64076;51.466;7.260;2023-08-31T13:53:49;26.90;39.30
75500;DHT22;64076;51.466;7.260;2023-08-31T13:56:15;26.90;39.40
75500;DHT22;64076;51.466;7.260;2023-08-31T13:58:40;26.90;39.40
75500;DHT22;64076;51.466;7.260;2023-08-31T14:01:06;26.90;39.50
75500;DHT22;64076;51.466;7.260;2023-08-31T14:03:31;26.90;39.50
75500;DHT22;64076;51.466;7.260;2023-08-31T14:05:57;26.90;39.50
75500;DHT22;64076;51.466;7.260;2023-08-31T14:08:23;26.90;39.30
75500;DHT22;64076;51.466;7.260;2023-08-31T14:10:48;26.80;39.30
75500;DHT22;64076;51.466;7.260;2023-08-31T14:13:14;26.80;39.50
75500;DHT22;64076;51.466;7.260;2023-08-31T14:15:44;26.80;39.40
75500;DHT22;64076;51.466;7.260;2023-08-31T14:18:11;26.80;39.40
75500;DHT22;64076;51.466;7.260;2023-08-31T14:20:37;26.70;39.40
75500;DHT22;64076;51.466;7.260;2023-08-31T14:23:03;26.70;39.40
75500;DHT22;64076;51.466;7.260;2023-08-31T14:25:33;26.70;39.30
75500;DHT22;64076;51.466;7.260;2023-08-31T14:27:58;26.70;39.40
75500;DHT22;64076;51.466;7.260;2023-08-31T14:30:24;26.70;39.30
75500;DHT22;64076;51.466;7.260;2023-08-31T14:32:49;26.70;39.10
75500;DHT22;64076;51.466;7.260;2023-08-31T14:35:15;26.60;39.10
75500;DHT22;64076;51.466;7.260;2023-08-31T14:37:40;26.60;39.30
75500;DHT22;64076;51.466;7.260;2023-08-31T14:40:07;26.60;39.20
75500;DHT22;64076;51.466;7.260;2023-08-31T14:42:33;26.60;39.30
75500;DHT22;64076;51.466;7.260;2023-08-31T14:44:59;26.60;39.50
75500;DHT22;64076;51.466;7.260;2023-08-31T14:47:24;26.60;39.80
75500;DHT22;64076;51.466;7.260;2023-08-31T14:49:50;26.60;40.10
75500;DHT22;64076;51.466;7.260;2023-08-31T14:52:15;26.60;40.70
75500;DHT22;64076;51.466;7.260;2023-08-31T14:54:41;26.60;40.90
75500;DHT22;64076;51.466;7.260;2023-08-31T14:57:07;26.70;41.20
75500;DHT22;64076;51.466;7.260;2023-08-31T14:59:32;26.70;41.40
75500;DHT22;64076;51.466;7.260;2023-08-31T15:01:58;26.60;41.60
75500;DHT22;64076;51.466;7.260;2023-08-31T15:04:23;26.70;41.80
75500;DHT22;64076;51.466;7.260;2023-08-31T15:06:49;26.70;42.00
75500;DHT22;64076;51.466;7.260;2023-08-31T15:09:15;26.70;42.10
75500;DHT22;64076;51.466;7.260;2023-08-31T15:11:40;26.70;42.30
75500;DHT22;64076;51.466;7.260;2023-08-31T15:14:06;26.60;42.50
75500;DHT22;64076;51.466;7.260;2023-08-31T15:16:31;26.70;42.70
75500;DHT22;64076;51.466;7.260;2023-08-31T15:18:59;26.70;42.80
75500;DHT22;64076;51.466;7.260;2023-08-31T15:21:25;26.70;42.90
75500;DHT22;64076;51.466;7.260;2023-08-31T15:23:50;26.70;43.10
75500;DHT22;64076;51.466;7.260;2023-08-31T15:26:16;26.60;43.20
75500;DHT22;64076;51.466;7.260;2023-08-31T15:28:43;26.60;43.40
75500;DHT22;64076;51.466;7.260;2023-08-31T15:31:12;26.60;43.40
75500;DHT22;64076;51.466;7.260;2023-08-31T15:33:38;26.60;43.50
75500;DHT22;64076;51.466;7.260;2023-08-31T15:36:05;26.60;43.60
75500;DHT22;64076;51.466;7.260;2023-08-31T15:38:31;26.50;43.60
75500;DHT22;64076;51.466;7.260;2023-08-31T15:40:57;26.50;43.80
75500;DHT22;64076;51.466;7.260;2023-08-31T15:43:23;26.50;43.80
75500;DHT22;64076;51.466;7.260;2023-08-31T15:45:49;26.50;43.80